Thunder radar more information blitzortung!


Rain radar more information rain snow radar



Rapports METAR proximité

   
EHVK - Volkel Rnlafb, Netherlands
Distance: SO 18 km
Mise à jour: 13-05-2021 01:25
Brouillard, Claires  
Brouillard, Claires  
   Vent: ENE 5.6 km/h
Vent: ENE 5.6 km/h
Température: 8°C
éolien: 7°C
Point de rosée: 8°C
Humidité: 100%
Baromètre: 1010 hPa
Nuageux: Claires
visibilité: 6 km
Détails des nuages: Claires
EHVK 122325Z AUTO 07003KT 6000 BR NCD 08/08 Q1010 WHT
EDLV - Niederrhein, Germany
Distance: SE 25 km
Mise à jour: 12-05-2021 23:50
PAS actuel
Claires  
Claires  
   Vent: varie 1.9 km/h
Vent: varie 1.9 km/h
Température: 11°C
Point de rosée: 9°C
Humidité: 88%
Baromètre: 1010 hPa
visibilité: More than 10 km
Détails des nuages: Claires
EDLV 122150Z VRB01KT CAVOK 11/09 Q1010
EHDL - Deelen Rnlafb, Netherlands
Distance: N 35 km
Mise à jour: 13-05-2021 01:25
Nuageux  
Nuageux  
   Vent: varie 1.9 km/h
Vent: varie 1.9 km/h
Température: 8°C
Point de rosée: 8°C
Humidité: 100%
Baromètre: 1010 hPa
Nuageux: Nuageux
visibilité: More than 10 km
Détails des nuages: Nuageux 11000 ft
EHDL 122325Z AUTO VRB01KT 9999 BKN110 08/08 Q1010 BLU
EHEH - Eindhoven Rnlafb, Netherlands
Distance: SO 48 km
Mise à jour: 13-05-2021 01:25
Nuageux  
Nuageux  
   Vent: Est 5.6 km/h
Vent: Est 5.6 km/h
Température: 8°C
éolien: 7°C
Point de rosée: 7°C
Humidité: 93%
Baromètre: 1010 hPa
Nuageux: Nuageux
visibilité: More than 10 km
Détails des nuages: Nuageux 24000 ft
EHEH 122325Z AUTO 09003KT 040V100 9999 OVC240 08/07 Q1010 BLU
EHGR - Gilze-Rijen Rnla, Netherlands
Distance: OSO 70 km
Mise à jour: 13-05-2021 01:25
Brouillard, Claires  
Brouillard, Claires  
   Vent: Est 3.7 km/h
Vent: Est 3.7 km/h
Température: 7°C
Point de rosée: 7°C
Humidité: 100%
Baromètre: 1010 hPa
Nuageux: Claires
visibilité: 5 km
Détails des nuages: Claires
EHGR 122325Z AUTO 08002KT 4800 BR NCD 07/07 Q1010 GRN
EBBL - Kleine-Brogel(Ba, Belgium
Distance: SSO 71 km
Mise à jour: 13-05-2021 00:55
Claires  
Claires  
   Vent: varie 1.9 km/h
Vent: varie 1.9 km/h
Température: 8°C
Point de rosée: 7°C
Humidité: 93%
Baromètre: 1010 hPa
Nuageux: Claires
visibilité: More than 10 km
Détails des nuages: Claires
EBBL 122255Z AUTO VRB01KT 9999 NCD 08/07 Q1010 BLU

Script développé par  Saratoga-weather.org Adapté pour le modèle par  Weerstation Leuven

Vous trouverez notre info météo Également à:

Weather Underground

Équipement que nous utilisons:

Station de Météo
Davis VP2

Programme Météo
Meteobridge

Ordinateur Météo
Apple Imac

Davis VP2

Meteobridge

Apple Imac